sensor_id;sensor_type;location;lat;lon;timestamp;pressure;altitude;pressure_sealevel;temperature;humidity
64336;BME280;50672;53.362;-6.240;2023-03-24T00:00:20;98660.84;;;7.85;62.74
64336;BME280;50672;53.362;-6.240;2023-03-24T00:02:50;98660.84;;;7.85;63.19
64336;BME280;50672;53.362;-6.240;2023-03-24T00:05:20;98655.41;;;7.85;63.07
64336;BME280;50672;53.362;-6.240;2023-03-24T00:07:47;98667.72;;;7.88;63.20
64336;BME280;50672;53.362;-6.240;2023-03-24T00:10:20;98668.78;;;7.87;63.22
64336;BME280;50672;53.362;-6.240;2023-03-24T00:12:49;98680.44;;;7.87;63.22
64336;BME280;50672;53.362;-6.240;2023-03-24T00:15:20;98688.56;;;7.87;63.01
64336;BME280;50672;53.362;-6.240;2023-03-24T00:17:48;98680.84;;;7.84;63.18
64336;BME280;50672;53.362;-6.240;2023-03-24T00:20:20;98681.47;;;7.86;63.18
64336;BME280;50672;53.362;-6.240;2023-03-24T00:22:50;98686.66;;;7.88;63.24
64336;BME280;50672;53.362;-6.240;2023-03-24T00:25:26;98689.59;;;7.86;63.15
64336;BME280;50672;53.362;-6.240;2023-03-24T00:27:59;98683.13;;;7.87;63.28
64336;BME280;50672;53.362;-6.240;2023-03-24T00:30:29;98703.78;;;7.89;63.32
64336;BME280;50672;53.362;-6.240;2023-03-24T00:32:57;98689.16;;;7.90;63.52
64336;BME280;50672;53.362;-6.240;2023-03-24T00:35:24;98710.00;;;7.89;63.39
64336;BME280;50672;53.362;-6.240;2023-03-24T00:37:51;98699.59;;;7.93;63.55
64336;BME280;50672;53.362;-6.240;2023-03-24T00:40:19;98695.22;;;7.92;63.44
64336;BME280;50672;53.362;-6.240;2023-03-24T00:42:48;98692.53;;;7.92;63.60
64336;BME280;50672;53.362;-6.240;2023-03-24T00:45:18;98705.25;;;7.91;63.54
64336;BME280;50672;53.362;-6.240;2023-03-24T00:47:45;98688.34;;;7.89;63.57
64336;BME280;50672;53.362;-6.240;2023-03-24T00:50:20;98681.25;;;7.88;63.61
64336;BME280;50672;53.362;-6.240;2023-03-24T00:52:53;98687.53;;;7.89;63.69
64336;BME280;50672;53.362;-6.240;2023-03-24T00:55:20;98693.75;;;7.89;63.72
64336;BME280;50672;53.362;-6.240;2023-03-24T00:57:47;98681.91;;;7.90;63.73
64336;BME280;50672;53.362;-6.240;2023-03-24T01:00:22;98692.31;;;7.86;63.81
64336;BME280;50672;53.362;-6.240;2023-03-24T01:02:52;98703.34;;;7.85;63.93
64336;BME280;50672;53.362;-6.240;2023-03-24T01:05:21;98699.81;;;7.84;63.82
64336;BME280;50672;53.362;-6.240;2023-03-24T01:07:49;98707.31;;;7.82;63.92
64336;BME280;50672;53.362;-6.240;2023-03-24T01:10:20;98701.06;;;7.82;63.98
64336;BME280;50672;53.362;-6.240;2023-03-24T01:12:47;98695.84;;;7.80;64.28
64336;BME280;50672;53.362;-6.240;2023-03-24T01:15:18;98704.59;;;7.82;64.11
64336;BME280;50672;53.362;-6.240;2023-03-24T01:17:45;98698.97;;;7.84;64.31
64336;BME280;50672;53.362;-6.240;2023-03-24T01:20:15;98715.00;;;7.85;64.35
64336;BME280;50672;53.362;-6.240;2023-03-24T01:22:42;98701.66;;;7.84;64.25
64336;BME280;50672;53.362;-6.240;2023-03-24T01:25:17;98708.56;;;7.86;64.45
64336;BME280;50672;53.362;-6.240;2023-03-24T01:27:45;98694.19;;;7.93;64.68
64336;BME280;50672;53.362;-6.240;2023-03-24T01:30:15;98708.78;;;7.98;64.76
64336;BME280;50672;53.362;-6.240;2023-03-24T01:32:42;98703.16;;;8.07;64.66
64336;BME280;50672;53.362;-6.240;2023-03-24T01:35:10;98713.94;;;8.13;64.76
64336;BME280;50672;53.362;-6.240;2023-03-24T01:37:38;98727.72;;;8.18;64.55
64336;BME280;50672;53.362;-6.240;2023-03-24T01:40:06;98706.03;;;8.18;64.81
64336;BME280;50672;53.362;-6.240;2023-03-24T01:42:37;98708.53;;;8.20;64.81
64336;BME280;50672;53.362;-6.240;2023-03-24T01:48:09;98725.00;;;8.25;64.66
64336;BME280;50672;53.362;-6.240;2023-03-24T01:50:37;98725.81;;;8.26;64.92
64336;BME280;50672;53.362;-6.240;2023-03-24T01:53:05;98743.53;;;8.28;64.80
64336;BME280;50672;53.362;-6.240;2023-03-24T01:55:33;98729.56;;;8.31;64.89
64336;BME280;50672;53.362;-6.240;2023-03-24T01:58:01;98733.75;;;8.34;64.71
64336;BME280;50672;53.362;-6.240;2023-03-24T02:00:29;98738.72;;;8.37;64.87
64336;BME280;50672;53.362;-6.240;2023-03-24T02:03:00;98732.28;;;8.38;64.53
64336;BME280;50672;53.362;-6.240;2023-03-24T02:05:36;98724.78;;;8.40;64.72
64336;BME280;50672;53.362;-6.240;2023-03-24T02:10:35;98724.34;;;8.36;64.96
64336;BME280;50672;53.362;-6.240;2023-03-24T02:13:04;98738.13;;;8.35;64.89
64336;BME280;50672;53.362;-6.240;2023-03-24T02:15:36;98742.91;;;8.33;65.05
64336;BME280;50672;53.362;-6.240;2023-03-24T02:18:25;98745.63;;;8.33;64.97
64336;BME280;50672;53.362;-6.240;2023-03-24T02:26:25;98733.34;;;8.24;65.15
64336;BME280;50672;53.362;-6.240;2023-03-24T02:29:25;98737.53;;;8.19;65.27
64336;BME280;50672;53.362;-6.240;2023-03-24T02:38:16;98739.63;;;8.11;65.48
64336;BME280;50672;53.362;-6.240;2023-03-24T02:41:04;98748.34;;;8.06;65.58
64336;BME280;50672;53.362;-6.240;2023-03-24T02:54:46;98728.97;;;8.09;65.76
64336;BME280;50672;53.362;-6.240;2023-03-24T03:00:07;98731.66;;;8.09;65.88
64336;BME280;50672;53.362;-6.240;2023-03-24T03:02:40;98740.44;;;8.11;66.03
64336;BME280;50672;53.362;-6.240;2023-03-24T03:05:20;98739.19;;;8.07;65.98
64336;BME280;50672;53.362;-6.240;2023-03-24T03:07:49;98741.47;;;8.03;66.07
64336;BME280;50672;53.362;-6.240;2023-03-24T03:10:23;98753.38;;;8.02;66.13
64336;BME280;50672;53.362;-6.240;2023-03-24T03:12:53;98743.34;;;8.03;66.06
64336;BME280;50672;53.362;-6.240;2023-03-24T03:15:24;98754.19;;;8.03;66.02
64336;BME280;50672;53.362;-6.240;2023-03-24T03:18:19;98752.94;;;7.99;66.04
64336;BME280;50672;53.362;-6.240;2023-03-24T03:20:54;98749.81;;;7.95;66.37
64336;BME280;50672;53.362;-6.240;2023-03-24T03:23:37;98746.69;;;7.92;66.09
64336;BME280;50672;53.362;-6.240;2023-03-24T03:26:08;98758.34;;;7.92;66.30
64336;BME280;50672;53.362;-6.240;2023-03-24T03:28:39;98741.88;;;7.94;66.38
64336;BME280;50672;53.362;-6.240;2023-03-24T03:31:12;98752.13;;;7.98;66.66
64336;BME280;50672;53.362;-6.240;2023-03-24T03:33:46;98746.50;;;8.00;66.25
64336;BME280;50672;53.362;-6.240;2023-03-24T03:36:23;98740.66;;;7.96;66.52
64336;BME280;50672;53.362;-6.240;2023-03-24T03:39:19;98738.78;;;7.97;66.30
64336;BME280;50672;53.362;-6.240;2023-03-24T03:41:47;98741.28;;;7.98;66.44
64336;BME280;50672;53.362;-6.240;2023-03-24T03:44:14;98745.63;;;7.99;66.25
64336;BME280;50672;53.362;-6.240;2023-03-24T03:46:41;98743.56;;;8.01;66.46
64336;BME280;50672;53.362;-6.240;2023-03-24T03:49:09;98743.16;;;8.04;66.36
64336;BME280;50672;53.362;-6.240;2023-03-24T03:51:36;98740.00;;;8.08;66.34
64336;BME280;50672;53.362;-6.240;2023-03-24T03:54:05;98742.13;;;8.12;66.34
64336;BME280;50672;53.362;-6.240;2023-03-24T03:56:35;98745.88;;;8.11;66.27
64336;BME280;50672;53.362;-6.240;2023-03-24T03:59:04;98745.88;;;8.11;66.40
64336;BME280;50672;53.362;-6.240;2023-03-24T04:01:34;98737.72;;;8.11;66.33
64336;BME280;50672;53.362;-6.240;2023-03-24T04:07:21;98747.94;;;8.16;66.56
64336;BME280;50672;53.362;-6.240;2023-03-24T04:16:21;98734.38;;;8.23;66.51
64336;BME280;50672;53.362;-6.240;2023-03-24T04:19:04;98742.09;;;8.26;66.67
64336;BME280;50672;53.362;-6.240;2023-03-24T04:24:07;98749.78;;;8.29;66.41
64336;BME280;50672;53.362;-6.240;2023-03-24T04:26:53;98743.34;;;8.30;66.49
64336;BME280;50672;53.362;-6.240;2023-03-24T04:34:37;98757.31;;;8.27;66.56
64336;BME280;50672;53.362;-6.240;2023-03-24T04:37:11;98751.25;;;8.25;66.30
64336;BME280;50672;53.362;-6.240;2023-03-24T04:39:42;98750.66;;;8.23;66.33
64336;BME280;50672;53.362;-6.240;2023-03-24T04:42:15;98741.91;;;8.20;66.53
64336;BME280;50672;53.362;-6.240;2023-03-24T04:44:44;98743.16;;;8.18;66.57
64336;BME280;50672;53.362;-6.240;2023-03-24T04:47:11;98743.16;;;8.18;66.56
64336;BME280;50672;53.362;-6.240;2023-03-24T04:49:38;98744.78;;;8.19;66.29
64336;BME280;50672;53.362;-6.240;2023-03-24T04:52:06;98750.44;;;8.17;66.32
64336;BME280;50672;53.362;-6.240;2023-03-24T04:54:33;98760.03;;;8.13;66.36
64336;BME280;50672;53.362;-6.240;2023-03-24T04:57:00;98746.91;;;8.10;66.55
64336;BME280;50672;53.362;-6.240;2023-03-24T04:59:29;98743.56;;;8.08;66.51
64336;BME280;50672;53.362;-6.240;2023-03-24T05:01:56;98749.00;;;8.08;66.54
64336;BME280;50672;53.362;-6.240;2023-03-24T05:04:25;98751.69;;;8.08;66.57
64336;BME280;50672;53.362;-6.240;2023-03-24T05:06:52;98750.47;;;8.11;66.71
64336;BME280;50672;53.362;-6.240;2023-03-24T05:09:23;98764.63;;;8.13;66.78
64336;BME280;50672;53.362;-6.240;2023-03-24T05:11:50;98763.78;;;8.12;66.90
64336;BME280;50672;53.362;-6.240;2023-03-24T05:14:18;98764.63;;;8.13;66.81
64336;BME280;50672;53.362;-6.240;2023-03-24T05:16:45;98764.00;;;8.11;66.88
64336;BME280;50672;53.362;-6.240;2023-03-24T05:19:12;98769.44;;;8.11;67.00
64336;BME280;50672;53.362;-6.240;2023-03-24T05:21:39;98762.53;;;8.08;66.84
64336;BME280;50672;53.362;-6.240;2023-03-24T05:24:06;98775.03;;;8.09;67.12
64336;BME280;50672;53.362;-6.240;2023-03-24T05:26:33;98771.28;;;8.10;67.11
64336;BME280;50672;53.362;-6.240;2023-03-24T05:29:01;98778.16;;;8.13;67.34
64336;BME280;50672;53.362;-6.240;2023-03-24T05:31:27;98777.94;;;8.14;67.30
64336;BME280;50672;53.362;-6.240;2023-03-24T05:33:54;98778.38;;;8.18;67.27
64336;BME280;50672;53.362;-6.240;2023-03-24T05:36:22;98790.25;;;8.17;67.35
64336;BME280;50672;53.362;-6.240;2023-03-24T05:38:49;98786.50;;;8.18;67.45
64336;BME280;50672;53.362;-6.240;2023-03-24T05:41:15;98784.00;;;8.16;67.45
64336;BME280;50672;53.362;-6.240;2023-03-24T05:43:42;98789.63;;;8.15;67.38
64336;BME280;50672;53.362;-6.240;2023-03-24T05:46:09;98787.13;;;8.13;67.45
64336;BME280;50672;53.362;-6.240;2023-03-24T05:48:36;98798.59;;;8.15;67.62
64336;BME280;50672;53.362;-6.240;2023-03-24T05:51:03;98792.16;;;8.16;67.73
64336;BME280;50672;53.362;-6.240;2023-03-24T05:53:30;98793.41;;;8.20;67.74
64336;BME280;50672;53.362;-6.240;2023-03-24T05:55:56;98793.78;;;8.24;67.79
64336;BME280;50672;53.362;-6.240;2023-03-24T05:58:25;98782.31;;;8.29;67.94
64336;BME280;50672;53.362;-6.240;2023-03-24T06:00:51;98790.06;;;8.32;67.82
64336;BME280;50672;53.362;-6.240;2023-03-24T06:03:20;98787.97;;;8.34;67.76
64336;BME280;50672;53.362;-6.240;2023-03-24T06:05:47;98788.16;;;8.32;67.87
64336;BME280;50672;53.362;-6.240;2023-03-24T06:08:14;98792.97;;;8.30;67.76
64336;BME280;50672;53.362;-6.240;2023-03-24T06:10:42;98785.88;;;8.29;67.87
64336;BME280;50672;53.362;-6.240;2023-03-24T06:13:09;98791.50;;;8.28;67.94
64336;BME280;50672;53.362;-6.240;2023-03-24T06:15:36;98794.44;;;8.26;67.77
64336;BME280;50672;53.362;-6.240;2023-03-24T06:18:05;98798.41;;;8.24;67.75
64336;BME280;50672;53.362;-6.240;2023-03-24T06:20:33;98792.97;;;8.24;68.02
64336;BME280;50672;53.362;-6.240;2023-03-24T06:23:01;98797.31;;;8.25;68.10
64336;BME280;50672;53.362;-6.240;2023-03-24T06:25:28;98799.63;;;8.21;67.96
64336;BME280;50672;53.362;-6.240;2023-03-24T06:27:55;98796.28;;;8.19;67.99
64336;BME280;50672;53.362;-6.240;2023-03-24T06:30:29;98790.47;;;8.15;68.12
64336;BME280;50672;53.362;-6.240;2023-03-24T06:32:56;98791.28;;;8.16;68.03
64336;BME280;50672;53.362;-6.240;2023-03-24T06:35:23;98795.47;;;8.18;68.17
64336;BME280;50672;53.362;-6.240;2023-03-24T06:37:50;98799.22;;;8.17;68.20
64336;BME280;50672;53.362;-6.240;2023-03-24T06:40:17;98809.22;;;8.17;68.07
64336;BME280;50672;53.362;-6.240;2023-03-24T06:42:45;98806.94;;;8.20;68.31
64336;BME280;50672;53.362;-6.240;2023-03-24T06:45:11;98811.50;;;8.20;68.03
64336;BME280;50672;53.362;-6.240;2023-03-24T06:47:38;98813.81;;;8.23;68.26
64336;BME280;50672;53.362;-6.240;2023-03-24T06:50:05;98812.56;;;8.26;68.27
64336;BME280;50672;53.362;-6.240;2023-03-24T06:52:33;98820.47;;;8.34;68.21
64336;BME280;50672;53.362;-6.240;2023-03-24T06:55:01;98824.47;;;8.45;68.55
64336;BME280;50672;53.362;-6.240;2023-03-24T06:57:28;98808.59;;;8.55;68.38
64336;BME280;50672;53.362;-6.240;2023-03-24T06:59:55;98827.16;;;8.65;68.10
64336;BME280;50672;53.362;-6.240;2023-03-24T07:02:22;98821.53;;;8.73;68.20
64336;BME280;50672;53.362;-6.240;2023-03-24T07:04:49;98825.06;;;8.80;67.99
64336;BME280;50672;53.362;-6.240;2023-03-24T07:07:19;98826.72;;;8.88;67.93
64336;BME280;50672;53.362;-6.240;2023-03-24T07:10:08;98823.78;;;8.96;68.06
64336;BME280;50672;53.362;-6.240;2023-03-24T07:12:35;98825.63;;;9.02;67.77
64336;BME280;50672;53.362;-6.240;2023-03-24T07:15:02;98825.41;;;9.04;67.65
64336;BME280;50672;53.362;-6.240;2023-03-24T07:17:30;98828.34;;;9.02;67.72
64336;BME280;50672;53.362;-6.240;2023-03-24T07:19:57;98828.75;;;9.06;68.03
64336;BME280;50672;53.362;-6.240;2023-03-24T07:22:24;98829.38;;;9.08;68.15
64336;BME280;50672;53.362;-6.240;2023-03-24T07:24:51;98826.25;;;9.11;67.97
64336;BME280;50672;53.362;-6.240;2023-03-24T07:27:19;98820.38;;;9.14;67.79
64336;BME280;50672;53.362;-6.240;2023-03-24T07:29:46;98827.88;;;9.19;67.86
64336;BME280;50672;53.362;-6.240;2023-03-24T07:32:13;98826.63;;;9.21;67.69
64336;BME280;50672;53.362;-6.240;2023-03-24T07:34:40;98818.25;;;9.23;67.61
64336;BME280;50672;53.362;-6.240;2023-03-24T07:37:09;98826.63;;;9.21;67.55
64336;BME280;50672;53.362;-6.240;2023-03-24T07:39:36;98824.75;;;9.15;67.55
64336;BME280;50672;53.362;-6.240;2023-03-24T07:42:03;98826.66;;;9.08;67.64
64336;BME280;50672;53.362;-6.240;2023-03-24T07:44:30;98827.53;;;9.02;67.57
64336;BME280;50672;53.362;-6.240;2023-03-24T07:46:57;98822.53;;;8.99;67.47
64336;BME280;50672;53.362;-6.240;2023-03-24T07:49:24;98817.50;;;8.96;67.46
64336;BME280;50672;53.362;-6.240;2023-03-24T07:51:51;98825.47;;;8.97;67.64
64336;BME280;50672;53.362;-6.240;2023-03-24T07:54:18;98834.19;;;8.99;67.63
64336;BME280;50672;53.362;-6.240;2023-03-24T07:56:45;98828.13;;;9.04;67.45
64336;BME280;50672;53.362;-6.240;2023-03-24T07:59:12;98834.59;;;9.10;67.60
64336;BME280;50672;53.362;-6.240;2023-03-24T08:01:39;98834.34;;;9.18;67.38
64336;BME280;50672;53.362;-6.240;2023-03-24T08:04:05;98839.75;;;9.24;67.49
64336;BME280;50672;53.362;-6.240;2023-03-24T08:06:33;98834.53;;;9.30;67.49
64336;BME280;50672;53.362;-6.240;2023-03-24T08:09:00;98840.19;;;9.28;67.40
64336;BME280;50672;53.362;-6.240;2023-03-24T08:11:27;98844.13;;;9.32;67.40
64336;BME280;50672;53.362;-6.240;2023-03-24T08:13:54;98835.56;;;9.29;67.34
64336;BME280;50672;53.362;-6.240;2023-03-24T08:16:21;98834.53;;;9.30;66.93
64336;BME280;50672;53.362;-6.240;2023-03-24T08:18:48;98833.69;;;9.29;66.86
64336;BME280;50672;53.362;-6.240;2023-03-24T08:21:16;98827.84;;;9.32;67.00
64336;BME280;50672;53.362;-6.240;2023-03-24T08:23:43;98821.13;;;9.35;67.06
64336;BME280;50672;53.362;-6.240;2023-03-24T08:26:10;98822.41;;;9.32;66.68
64336;BME280;50672;53.362;-6.240;2023-03-24T08:28:41;98829.50;;;9.33;67.02
64336;BME280;50672;53.362;-6.240;2023-03-24T08:31:08;98831.97;;;9.35;66.87
64336;BME280;50672;53.362;-6.240;2023-03-24T08:33:36;98835.56;;;9.35;66.48
64336;BME280;50672;53.362;-6.240;2023-03-24T08:36:03;98820.94;;;9.36;66.62
64336;BME280;50672;53.362;-6.240;2023-03-24T08:38:30;98826.94;;;9.45;66.61
64336;BME280;50672;53.362;-6.240;2023-03-24T08:40:59;98831.09;;;9.54;66.83
64336;BME280;50672;53.362;-6.240;2023-03-24T08:43:29;98829.59;;;9.58;66.75
64336;BME280;50672;53.362;-6.240;2023-03-24T08:45:58;98833.53;;;9.63;66.40
64336;BME280;50672;53.362;-6.240;2023-03-24T08:48:26;98825.53;;;9.74;66.60
64336;BME280;50672;53.362;-6.240;2023-03-24T08:50:54;98816.50;;;9.81;66.49
64336;BME280;50672;53.362;-6.240;2023-03-24T08:53:21;98816.09;;;9.84;66.36
64336;BME280;50672;53.362;-6.240;2023-03-24T08:55:48;98820.41;;;9.91;66.28
64336;BME280;50672;53.362;-6.240;2023-03-24T08:58:17;98815.31;;;10.02;65.94
64336;BME280;50672;53.362;-6.240;2023-03-24T09:00:45;98833.59;;;10.20;65.92
64336;BME280;50672;53.362;-6.240;2023-03-24T09:03:14;98844.06;;;10.23;65.69
64336;BME280;50672;53.362;-6.240;2023-03-24T09:05:45;98826.91;;;10.22;65.30
64336;BME280;50672;53.362;-6.240;2023-03-24T09:08:15;98830.00;;;10.26;65.21
64336;BME280;50672;53.362;-6.240;2023-03-24T09:10:43;98830.78;;;10.40;65.11
64336;BME280;50672;53.362;-6.240;2023-03-24T09:13:13;98825.34;;;10.40;64.99
64336;BME280;50672;53.362;-6.240;2023-03-24T09:15:47;98813.22;;;10.36;64.83
64336;BME280;50672;53.362;-6.240;2023-03-24T09:18:16;98826.41;;;10.32;64.50
64336;BME280;50672;53.362;-6.240;2023-03-24T09:20:45;98825.56;;;10.38;64.52
64336;BME280;50672;53.362;-6.240;2023-03-24T09:23:12;98825.72;;;10.43;64.24
64336;BME280;50672;53.362;-6.240;2023-03-24T09:25:39;98825.81;;;10.55;64.42
64336;BME280;50672;53.362;-6.240;2023-03-24T09:28:06;98822.38;;;10.67;63.99
64336;BME280;50672;53.362;-6.240;2023-03-24T09:30:34;98827.34;;;10.70;64.02
64336;BME280;50672;53.362;-6.240;2023-03-24T09:33:01;98822.31;;;10.73;63.63
64336;BME280;50672;53.362;-6.240;2023-03-24T09:35:29;98822.09;;;10.93;63.41
64336;BME280;50672;53.362;-6.240;2023-03-24T09:37:55;98822.56;;;11.09;63.34
64336;BME280;50672;53.362;-6.240;2023-03-24T09:40:31;98815.59;;;11.13;62.81
64336;BME280;50672;53.362;-6.240;2023-03-24T09:43:04;98815.75;;;11.18;62.70
64336;BME280;50672;53.362;-6.240;2023-03-24T09:45:35;98823.00;;;11.24;62.49
64336;BME280;50672;53.362;-6.240;2023-03-24T09:48:10;98818.94;;;11.15;62.43
64336;BME280;50672;53.362;-6.240;2023-03-24T09:50:49;98810.63;;;11.10;62.29
64336;BME280;50672;53.362;-6.240;2023-03-24T09:53:28;98818.19;;;11.08;61.63
64336;BME280;50672;53.362;-6.240;2023-03-24T09:56:02;98801.22;;;11.24;61.82
64336;BME280;50672;53.362;-6.240;2023-03-24T09:58:32;98805.31;;;11.34;61.58
64336;BME280;50672;53.362;-6.240;2023-03-24T10:00:59;98788.97;;;11.34;61.14
64336;BME280;50672;53.362;-6.240;2023-03-24T10:03:26;98802.44;;;11.47;61.25
64336;BME280;50672;53.362;-6.240;2023-03-24T10:06:00;98775.06;;;11.54;60.71
64336;BME280;50672;53.362;-6.240;2023-03-24T10:25:12;98774.34;;;12.07;58.55
64336;BME280;50672;53.362;-6.240;2023-03-24T10:27:46;98770.06;;;12.23;57.88
64336;BME280;50672;53.362;-6.240;2023-03-24T10:30:15;98783.75;;;12.35;57.80
64336;BME280;50672;53.362;-6.240;2023-03-24T10:32:43;98778.53;;;12.45;57.57
64336;BME280;50672;53.362;-6.240;2023-03-24T10:35:22;98767.03;;;12.67;57.09
64336;BME280;50672;53.362;-6.240;2023-03-24T10:37:50;98776.25;;;12.78;56.78
64336;BME280;50672;53.362;-6.240;2023-03-24T10:40:19;98757.06;;;12.73;56.33
64336;BME280;50672;53.362;-6.240;2023-03-24T10:42:48;98773.09;;;12.57;56.48
64336;BME280;50672;53.362;-6.240;2023-03-24T10:45:35;98761.78;;;12.42;55.96
64336;BME280;50672;53.362;-6.240;2023-03-24T10:48:04;98762.97;;;12.46;56.19
64336;BME280;50672;53.362;-6.240;2023-03-24T10:50:32;98748.28;;;12.47;56.12
64336;BME280;50672;53.362;-6.240;2023-03-24T10:53:08;98739.84;;;12.48;55.91
64336;BME280;50672;53.362;-6.240;2023-03-24T10:55:37;98751.47;;;12.56;55.93
64336;BME280;50672;53.362;-6.240;2023-03-24T10:58:25;98747.91;;;12.67;55.81
64336;BME280;50672;53.362;-6.240;2023-03-24T11:00:54;98732.56;;;12.78;55.66
64336;BME280;50672;53.362;-6.240;2023-03-24T11:03:29;98742.19;;;12.92;55.43
64336;BME280;50672;53.362;-6.240;2023-03-24T11:06:01;98726.88;;;12.91;55.26
64336;BME280;50672;53.362;-6.240;2023-03-24T11:10:58;98706.56;;;13.28;55.25
64336;BME280;50672;53.362;-6.240;2023-03-24T11:13:32;98719.97;;;13.29;55.01
64336;BME280;50672;53.362;-6.240;2023-03-24T11:16:12;98704.06;;;13.26;54.95
64336;BME280;50672;53.362;-6.240;2023-03-24T11:19:00;98701.19;;;13.33;54.63
64336;BME280;50672;53.362;-6.240;2023-03-24T11:21:30;98701.25;;;13.50;54.59
64336;BME280;50672;53.362;-6.240;2023-03-24T11:24:02;98700.78;;;13.53;53.98
64336;BME280;50672;53.362;-6.240;2023-03-24T11:26:32;98692.84;;;13.68;54.00
64336;BME280;50672;53.362;-6.240;2023-03-24T11:29:20;98697.06;;;13.59;53.56
64336;BME280;50672;53.362;-6.240;2023-03-24T11:31:53;98685.94;;;13.66;53.33
64336;BME280;50672;53.362;-6.240;2023-03-24T11:34:24;98693.03;;;13.79;53.29
64336;BME280;50672;53.362;-6.240;2023-03-24T11:37:04;98674.69;;;13.96;53.08
64336;BME280;50672;53.362;-6.240;2023-03-24T11:39:34;98706.19;;;14.33;52.75
64336;BME280;50672;53.362;-6.240;2023-03-24T11:47:32;98701.16;;;15.03;52.16
64336;BME280;50672;53.362;-6.240;2023-03-24T11:52:44;98686.59;;;15.25;51.07
64336;BME280;50672;53.362;-6.240;2023-03-24T11:55:29;98684.88;;;15.46;50.84
64336;BME280;50672;53.362;-6.240;2023-03-24T12:00:37;98672.25;;;16.42;50.33
64336;BME280;50672;53.362;-6.240;2023-03-24T12:05:51;98657.38;;;16.86;49.21
64336;BME280;50672;53.362;-6.240;2023-03-24T12:13:41;98636.41;;;17.69;46.98
64336;BME280;50672;53.362;-6.240;2023-03-24T12:26:59;98622.13;;;17.98;43.89
64336;BME280;50672;53.362;-6.240;2023-03-24T12:32:06;98603.66;;;18.19;43.47
64336;BME280;50672;53.362;-6.240;2023-03-24T12:43:23;98603.78;;;22.37;39.83
64336;BME280;50672;53.362;-6.240;2023-03-24T12:45:57;98596.44;;;22.97;38.86
64336;BME280;50672;53.362;-6.240;2023-03-24T12:51:18;98570.97;;;23.45;37.07
64336;BME280;50672;53.362;-6.240;2023-03-24T12:56:39;98583.97;;;23.81;35.60
64336;BME280;50672;53.362;-6.240;2023-03-24T12:59:16;98602.28;;;24.05;34.88
64336;BME280;50672;53.362;-6.240;2023-03-24T13:01:49;98593.50;;;24.12;34.19
64336;BME280;50672;53.362;-6.240;2023-03-24T13:04:22;98607.28;;;23.94;33.78
64336;BME280;50672;53.362;-6.240;2023-03-24T13:06:56;98595.13;;;24.13;33.62
64336;BME280;50672;53.362;-6.240;2023-03-24T13:09:58;98590.25;;;25.16;33.16
64336;BME280;50672;53.362;-6.240;2023-03-24T13:12:46;98601.91;;;26.83;32.62
64336;BME280;50672;53.362;-6.240;2023-03-24T13:15:29;98583.50;;;28.09;31.91
64336;BME280;50672;53.362;-6.240;2023-03-24T13:20:48;98571.84;;;29.99;30.19
64336;BME280;50672;53.362;-6.240;2023-03-24T13:31:56;98544.63;;;28.16;27.82
64336;BME280;50672;53.362;-6.240;2023-03-24T13:34:25;98550.22;;;26.08;27.69
64336;BME280;50672;53.362;-6.240;2023-03-24T13:37:56;98582.44;;;23.52;28.37
64336;BME280;50672;53.362;-6.240;2023-03-24T13:40:10;98626.63;;;21.06;29.26
64336;BME280;50672;53.362;-6.240;2023-03-24T13:42:53;98619.44;;;18.73;32.06
64336;BME280;50672;53.362;-6.240;2023-03-24T13:50:41;98619.47;;;15.54;37.96
64336;BME280;50672;53.362;-6.240;2023-03-24T13:53:13;98641.78;;;15.14;39.32
64336;BME280;50672;53.362;-6.240;2023-03-24T13:55:50;98642.56;;;14.82;40.67
64336;BME280;50672;53.362;-6.240;2023-03-24T13:58:21;98651.81;;;14.59;41.47
64336;BME280;50672;53.362;-6.240;2023-03-24T14:03:42;98656.06;;;13.93;43.75
64336;BME280;50672;53.362;-6.240;2023-03-24T14:06:16;98655.97;;;13.71;44.88
64336;BME280;50672;53.362;-6.240;2023-03-24T14:17:10;98673.50;;;12.72;49.12
64336;BME280;50672;53.362;-6.240;2023-03-24T14:27:44;98640.56;;;22.57;48.10
64336;BME280;50672;53.362;-6.240;2023-03-24T14:32:43;98667.31;;;26.82;42.94
64336;BME280;50672;53.362;-6.240;2023-03-24T14:35:39;98675.75;;;28.18;40.24
64336;BME280;50672;53.362;-6.240;2023-03-24T14:40:42;98620.91;;;25.86;37.20
64336;BME280;50672;53.362;-6.240;2023-03-24T14:43:29;98615.91;;;22.83;36.90
64336;BME280;50672;53.362;-6.240;2023-03-24T14:51:39;98623.41;;;22.55;36.72
64336;BME280;50672;53.362;-6.240;2023-03-24T14:56:51;98621.72;;;23.60;36.38
64336;BME280;50672;53.362;-6.240;2023-03-24T14:59:40;98614.16;;;24.60;35.67
64336;BME280;50672;53.362;-6.240;2023-03-24T15:05:17;98596.38;;;22.74;34.98
64336;BME280;50672;53.362;-6.240;2023-03-24T15:10:32;98593.84;;;24.50;34.55
64336;BME280;50672;53.362;-6.240;2023-03-24T15:13:02;98607.31;;;25.76;34.21
64336;BME280;50672;53.362;-6.240;2023-03-24T15:15:29;98593.38;;;27.94;32.87
64336;BME280;50672;53.362;-6.240;2023-03-24T15:17:56;98584.19;;;24.56;32.65
64336;BME280;50672;53.362;-6.240;2023-03-24T15:20:32;98599.53;;;22.12;33.13
64336;BME280;50672;53.362;-6.240;2023-03-24T15:23:07;98617.84;;;22.41;33.51
64336;BME280;50672;53.362;-6.240;2023-03-24T15:25:39;98596.22;;;20.33;33.97
64336;BME280;50672;53.362;-6.240;2023-03-24T15:28:18;98593.63;;;18.54;35.15
64336;BME280;50672;53.362;-6.240;2023-03-24T15:30:49;98602.63;;;21.01;35.58
64336;BME280;50672;53.362;-6.240;2023-03-24T15:33:17;98584.34;;;23.43;35.01
64336;BME280;50672;53.362;-6.240;2023-03-24T15:35:44;98574.75;;;23.72;34.23
64336;BME280;50672;53.362;-6.240;2023-03-24T15:38:20;98605.00;;;24.28;33.50
64336;BME280;50672;53.362;-6.240;2023-03-24T15:40:57;98603.50;;;25.98;32.69
64336;BME280;50672;53.362;-6.240;2023-03-24T15:43:25;98602.34;;;26.08;32.14
64336;BME280;50672;53.362;-6.240;2023-03-24T15:45:54;98603.94;;;24.78;31.84
64336;BME280;50672;53.362;-6.240;2023-03-24T15:48:37;98612.34;;;25.21;31.61
64336;BME280;50672;53.362;-6.240;2023-03-24T15:51:06;98580.84;;;26.17;31.46
64336;BME280;50672;53.362;-6.240;2023-03-24T15:53:44;98614.03;;;23.79;31.20
64336;BME280;50672;53.362;-6.240;2023-03-24T15:59:14;98603.06;;;24.28;31.66
64336;BME280;50672;53.362;-6.240;2023-03-24T16:01:41;98597.78;;;24.58;31.37
64336;BME280;50672;53.362;-6.240;2023-03-24T16:04:13;98572.41;;;23.43;31.54
64336;BME280;50672;53.362;-6.240;2023-03-24T16:06:50;98582.53;;;20.23;32.04